Time;durP1;ratioP1;P1;durP2;ratioP2;P2;SDS_P1;SDS_P2;PMS_P1;PMS_P2;Temp;Humidity;BMP_temperature;BMP_pressure;BME280_temperature;BME280_humidity;BME280_pressure;Samples;Min_cycle;Max_cycle;Signal;HPM_P1;HPM_P2
2023/08/30 00:01:46;;;;;;;1.92;0.80;;;;;;;13.03;77.43;100408.41;5000664;28;20076;-46
2023/08/30 00:04:13;;;;;;;4.85;1.15;;;;;;;13.02;77.63;100406.00;5011581;28;20555;-43
2023/08/30 00:06:42;;;;;;;6.00;0.93;;;;;;;12.97;77.61;100409.91;5013132;28;20053;-44
2023/08/30 00:09:09;;;;;;;2.53;1.00;;;;;;;12.98;77.96;100417.03;5010820;28;20074;-44
2023/08/30 00:11:39;;;;;;;4.00;0.70;;;;;;;12.96;78.09;100410.25;5011807;28;20061;-44
2023/08/30 00:14:06;;;;;;;5.75;1.00;;;;;;;12.94;78.13;100407.03;5012254;28;20547;-43
2023/08/30 00:16:34;;;;;;;6.13;1.33;;;;;;;12.97;78.34;100397.97;5013548;28;20650;-44
2023/08/30 00:19:01;;;;;;;5.75;1.10;;;;;;;12.98;78.37;100405.94;5012123;28;20046;-44
2023/08/30 00:21:29;;;;;;;1.75;0.85;;;;;;;12.96;78.48;100407.47;5012712;28;20088;-44
2023/08/30 00:23:56;;;;;;;4.43;1.00;;;;;;;12.94;78.81;100409.81;5012532;28;20053;-44
2023/08/30 00:26:23;;;;;;;5.20;1.27;;;;;;;12.95;78.65;100406.66;5012830;28;20392;-45
2023/08/30 00:28:51;;;;;;;7.32;2.40;;;;;;;12.97;78.74;100397.97;5011897;28;20092;-46
2023/08/30 00:31:18;;;;;;;10.13;1.42;;;;;;;12.91;79.01;100410.56;5012149;28;20704;-44
2023/08/30 00:33:48;;;;;;;5.60;0.95;;;;;;;12.87;79.36;100401.38;5013089;28;20097;-44
2023/08/30 00:36:17;;;;;;;4.03;0.98;;;;;;;12.84;79.37;100400.91;5012946;28;20526;-45
2023/08/30 00:38:44;;;;;;;2.78;1.35;;;;;;;12.81;79.59;100407.19;5011871;28;20053;-43
2023/08/30 00:41:11;;;;;;;3.05;0.93;;;;;;;12.80;79.69;100404.81;5011833;28;20073;-44
2023/08/30 00:43:39;;;;;;;1.08;0.60;;;;;;;12.80;80.19;100399.25;5011963;28;20096;-45
2023/08/30 00:46:07;;;;;;;2.92;1.27;;;;;;;12.83;80.18;100391.00;5012292;28;20164;-45
2023/08/30 00:48:34;;;;;;;4.70;1.17;;;;;;;12.83;80.17;100382.66;5009430;28;20128;-44
2023/08/30 00:51:01;;;;;;;5.68;0.80;;;;;;;12.80;80.51;100386.16;5011514;28;20385;-44
2023/08/30 00:53:29;;;;;;;2.20;0.65;;;;;;;12.81;80.64;100379.41;5011283;28;20041;-45
2023/08/30 00:55:57;;;;;;;4.57;0.90;;;;;;;12.81;80.95;100379.41;5012332;28;20050;-45
2023/08/30 00:58:26;;;;;;;4.30;0.88;;;;;;;12.80;80.89;100368.69;5011393;28;20045;-45
2023/08/30 01:00:54;;;;;;;4.55;1.30;;;;;;;12.81;80.97;100373.88;5003214;28;20092;-44
2023/08/30 01:03:22;;;;;;;3.95;0.80;;;;;;;12.86;81.09;100380.31;5007087;28;20085;-44
2023/08/30 01:05:50;;;;;;;2.80;1.20;;;;;;;12.84;81.37;100373.13;5007385;28;20046;-44
2023/08/30 01:08:17;;;;;;;4.88;0.98;;;;;;;12.82;81.48;100380.22;5005800;28;20046;-46
2023/08/30 01:10:55;;;;;;;2.53;0.82;;;;;;;12.86;81.75;100369.19;5017816;28;20120;-44
2023/08/30 01:13:23;;;;;;;1.67;0.80;;;;;;;12.87;81.72;100370.81;5005457;28;20046;-44
2023/08/30 01:15:53;;;;;;;4.50;1.10;;;;;;;12.90;81.81;100373.63;5006199;28;20046;-44
2023/08/30 01:18:26;;;;;;;4.72;1.00;;;;;;;12.94;81.78;100370.94;5005288;28;20081;-45
2023/08/30 01:20:55;;;;;;;3.13;1.00;;;;;;;12.98;81.84;100371.78;5004672;28;20046;-44
2023/08/30 01:23:37;;;;;;;5.20;1.00;;;;;;;13.00;81.78;100370.22;5007599;28;20045;-48
2023/08/30 01:26:05;;;;;;;1.92;0.57;;;;;;;12.98;81.99;100374.56;5006734;28;20129;-45
2023/08/30 01:28:55;;;;;;;5.15;1.05;;;;;;;12.96;82.25;100371.34;4997129;28;21080;-45
2023/08/30 01:31:34;;;;;;;3.47;0.85;;;;;;;12.96;82.36;100371.34;5005473;28;20396;-44
2023/08/30 01:34:04;;;;;;;2.90;1.00;;;;;;;12.97;82.48;100357.09;5011315;28;20064;-44
2023/08/30 01:36:32;;;;;;;4.07;1.23;;;;;;;12.96;82.33;100357.47;5011844;28;20446;-44
2023/08/30 01:39:00;;;;;;;4.53;1.15;;;;;;;12.94;82.77;100365.38;5010335;28;20050;-47
2023/08/30 01:41:29;;;;;;;3.72;1.23;;;;;;;12.93;82.98;100358.19;5012024;28;20070;-45
2023/08/30 01:44:03;;;;;;;6.65;1.85;;;;;;;12.95;82.92;100344.72;4998081;28;20058;-44
2023/08/30 01:46:33;;;;;;;1.83;0.70;;;;;;;12.94;82.86;100351.47;5011196;28;20042;-45
2023/08/30 01:49:03;;;;;;;7.10;1.02;;;;;;;12.93;83.04;100347.06;5008010;28;20042;-44
2023/08/30 01:51:32;;;;;;;5.93;1.92;;;;;;;12.93;83.21;100347.06;5006460;28;20503;-45
2023/08/30 01:54:00;;;;;;;6.38;0.80;;;;;;;12.96;83.09;100346.34;5011320;28;20406;-44
2023/08/30 01:56:27;;;;;;;3.13;0.80;;;;;;;12.93;83.25;100344.31;5011632;28;20058;-44
2023/08/30 01:58:54;;;;;;;6.60;1.05;;;;;;;12.90;83.30;100333.94;5011420;28;20085;-44
2023/08/30 02:01:21;;;;;;;3.20;1.00;;;;;;;12.89;83.55;100326.78;5014776;28;20088;-45
2023/08/30 02:03:48;;;;;;;1.50;0.90;;;;;;;12.84;83.82;100337.00;5015336;28;20502;-45
2023/08/30 02:06:24;;;;;;;3.20;1.05;;;;;;;12.80;84.04;100338.13;5015132;28;20041;-45
2023/08/30 02:09:14;;;;;;;7.25;1.20;;;;;;;12.78;84.16;100329.38;4993077;28;20385;-45
2023/08/30 02:11:44;;;;;;;4.65;1.05;;;;;;;12.76;84.07;100332.50;5013370;28;20133;-45
2023/08/30 02:14:17;;;;;;;5.80;1.08;;;;;;;12.74;84.38;100329.31;5006852;28;20411;-45
2023/08/30 02:16:48;;;;;;;6.32;1.10;;;;;;;12.73;84.41;100332.47;5013837;28;20046;-44
2023/08/30 02:19:20;;;;;;;3.63;0.70;;;;;;;12.73;84.29;100333.25;5008727;28;20136;-44
2023/08/30 02:21:48;;;;;;;1.45;0.70;;;;;;;12.72;84.59;100336.41;5011063;28;20053;-45
2023/08/30 02:24:15;;;;;;;8.35;1.08;;;;;;;12.69;84.64;100337.13;5008442;28;20132;-43
2023/08/30 02:26:42;;;;;;;3.40;1.35;;;;;;;12.66;84.74;100337.88;5011698;28;20568;-44
2023/08/30 02:29:09;;;;;;;11.02;2.60;;;;;;;12.62;84.94;100348.94;5007373;28;20060;-44
2023/08/30 02:31:37;;;;;;;2.55;0.90;;;;;;;12.62;84.83;100342.56;5006346;28;20104;-44
2023/08/30 02:34:06;;;;;;;4.63;1.23;;;;;;;12.59;84.95;100334.97;4993886;28;20515;-44
2023/08/30 02:36:34;;;;;;;6.90;1.10;;;;;;;12.54;85.13;100344.41;5014367;28;20054;-44
2023/08/30 02:39:01;;;;;;;2.83;1.00;;;;;;;12.49;85.43;100338.34;5013480;28;20499;-44
2023/08/30 02:41:28;;;;;;;1.83;0.88;;;;;;;12.47;85.48;100335.94;5014086;28;20045;-44
2023/08/30 02:43:55;;;;;;;4.00;1.05;;;;;;;12.45;85.61;100338.28;5014679;28;20038;-44
2023/08/30 02:46:24;;;;;;;2.72;0.90;;;;;;;12.42;85.74;100332.66;5013057;28;20046;-43
2023/08/30 02:48:51;;;;;;;3.78;1.00;;;;;;;12.40;85.72;100330.25;5003353;28;20492;-49
2023/08/30 02:51:18;;;;;;;2.55;1.20;;;;;;;12.40;85.89;100335.00;5011406;28;20052;-44
2023/08/30 02:53:46;;;;;;;2.83;1.10;;;;;;;12.40;86.35;100338.56;5002133;28;20092;-44
2023/08/30 02:56:13;;;;;;;3.17;1.27;;;;;;;12.39;86.25;100333.41;5012288;28;20057;-44
2023/08/30 02:58:41;;;;;;;9.60;1.50;;;;;;;12.41;86.40;100334.63;4995887;28;20041;-44
2023/08/30 03:01:08;;;;;;;7.05;1.20;;;;;;;12.43;86.32;100339.81;5024970;23;20054;-43
2023/08/30 03:03:35;;;;;;;7.20;1.27;;;;;;;12.40;86.39;100335.81;5016981;28;20133;-44
2023/08/30 03:06:03;;;;;;;5.82;1.45;;;;;;;12.37;86.35;100336.53;5013321;28;20149;-45
2023/08/30 03:08:32;;;;;;;6.88;1.23;;;;;;;12.35;86.63;100338.88;5012590;28;20133;-44
2023/08/30 03:11:10;;;;;;;4.70;1.05;;;;;;;12.30;87.12;100336.41;5011921;28;20447;-45
2023/08/30 03:13:37;;;;;;;9.00;1.60;;;;;;;12.29;86.64;100333.97;5013205;28;20149;-46
2023/08/30 03:16:11;;;;;;;3.00;1.13;;;;;;;12.26;86.96;100323.63;5013082;28;20054;-45
2023/08/30 03:18:40;;;;;;;4.38;0.95;;;;;;;12.23;87.18;100318.81;5013261;28;20045;-46
2023/08/30 03:21:07;;;;;;;4.75;1.40;;;;;;;12.19;87.47;100324.28;5013755;28;20132;-45
2023/08/30 03:23:36;;;;;;;11.60;1.58;;;;;;;12.13;87.46;100321.00;5006310;28;20092;-47
2023/08/30 03:26:10;;;;;;;6.57;1.13;;;;;;;12.17;87.49;100315.53;5014324;28;20050;-44
2023/08/30 03:28:37;;;;;;;4.32;1.20;;;;;;;12.17;87.22;100315.53;5014048;28;20054;-45
2023/08/30 03:31:31;;;;;;;6.85;1.42;;;;;;;12.15;87.51;100317.88;5012449;28;20140;-44
2023/08/30 03:33:58;;;;;;;4.28;1.10;;;;;;;12.14;87.50;100319.84;5010743;28;20045;-44
2023/08/30 03:36:25;;;;;;;8.50;1.50;;;;;;;12.14;87.51;100319.03;5012225;28;20494;-44
2023/08/30 03:38:52;;;;;;;7.47;1.20;;;;;;;12.13;87.73;100314.63;5012698;28;20073;-44
2023/08/30 03:41:19;;;;;;;6.95;1.30;;;;;;;12.12;87.63;100321.38;5013960;28;20050;-46
2023/08/30 03:43:46;;;;;;;2.75;1.50;;;;;;;12.10;87.92;100320.91;5013420;28;20423;-45
2023/08/30 03:46:13;;;;;;;8.63;1.80;;;;;;;12.06;87.87;100326.41;5013789;28;20057;-45
2023/08/30 03:48:42;;;;;;;5.40;1.15;;;;;;;12.04;88.28;100327.94;5013377;28;20454;-44
2023/08/30 03:51:09;;;;;;;11.50;1.55;;;;;;;12.04;88.17;100327.94;5002542;28;20054;-44
2023/08/30 03:53:37;;;;;;;9.55;1.40;;;;;;;12.06;88.43;100331.16;5010548;28;20500;-44
2023/08/30 03:56:04;;;;;;;10.40;1.30;;;;;;;12.07;88.46;100335.53;5011943;28;20077;-44
2023/08/30 03:58:33;;;;;;;1.75;0.90;;;;;;;12.07;88.49;100341.09;5013527;28;20076;-44
2023/08/30 04:01:00;;;;;;;2.60;1.60;;;;;;;12.08;88.52;100334.34;5013310;28;20061;-44
2023/08/30 04:03:28;;;;;;;2.45;1.02;;;;;;;12.06;88.80;100339.47;5011406;28;20042;-45
2023/08/30 04:05:59;;;;;;;6.47;1.42;;;;;;;12.04;88.70;100339.03;5012680;28;20057;-47
2023/08/30 04:08:26;;;;;;;3.03;0.93;;;;;;;12.01;88.92;100337.81;5012240;28;20411;-46
2023/08/30 04:10:53;;;;;;;5.05;1.48;;;;;;;12.01;88.98;100331.44;5012129;28;20046;-44
2023/08/30 04:13:21;;;;;;;8.10;1.20;;;;;;;12.00;89.12;100336.19;5012992;28;20045;-45
2023/08/30 04:15:49;;;;;;;6.00;1.13;;;;;;;12.02;89.26;100338.59;5013445;28;20068;-46
2023/08/30 04:18:16;;;;;;;7.75;1.77;;;;;;;12.04;89.22;100333.50;5012842;28;20041;-44
2023/08/30 04:20:47;;;;;;;3.88;1.10;;;;;;;12.04;89.29;100328.75;5012742;28;20052;-44
2023/08/30 04:23:14;;;;;;;5.35;1.67;;;;;;;12.03;89.09;100337.44;4994149;28;20054;-45
2023/08/30 04:25:42;;;;;;;3.92;0.93;;;;;;;12.04;89.36;100328.75;5012456;28;20045;-44
2023/08/30 04:28:10;;;;;;;6.78;0.88;;;;;;;12.02;89.47;100327.50;5011451;28;20072;-45
2023/08/30 04:30:38;;;;;;;7.00;0.95;;;;;;;12.01;89.16;100323.13;5013931;28;20085;-46
2023/08/30 04:33:06;;;;;;;5.57;0.77;;;;;;;11.98;89.54;100332.16;5011437;28;20594;-47
2023/08/30 04:35:34;;;;;;;6.18;1.13;;;;;;;11.97;89.68;100333.31;5015611;28;20057;-45
2023/08/30 04:38:02;;;;;;;8.27;1.90;;;;;;;11.95;89.67;100336.47;5011341;28;20056;-44
2023/08/30 04:40:32;;;;;;;4.03;1.15;;;;;;;11.92;89.94;100320.56;5014468;28;20045;-44
2023/08/30 04:42:59;;;;;;;7.47;1.17;;;;;;;11.90;89.96;100317.34;4994692;28;20100;-44
2023/08/30 04:45:27;;;;;;;7.80;1.73;;;;;;;11.86;90.17;100318.44;5010473;28;20084;-44
2023/08/30 04:47:54;;;;;;;3.45;0.93;;;;;;;11.85;90.34;100314.06;4994963;28;20051;-45
2023/08/30 04:50:22;;;;;;;9.75;1.60;;;;;;;11.81;90.30;100329.84;5014309;28;20116;-44
2023/08/30 04:52:49;;;;;;;4.25;1.00;;;;;;;11.76;90.83;100319.00;5012254;28;20485;-44
2023/08/30 04:55:16;;;;;;;3.33;0.90;;;;;;;11.76;90.67;100319.81;5012173;28;20128;-44
2023/08/30 04:57:47;;;;;;;5.10;1.52;;;;;;;11.75;90.78;100334.88;5008546;28;20068;-46
2023/08/30 05:00:15;;;;;;;8.27;1.20;;;;;;;11.71;91.26;100328.41;5007382;28;20046;-44
2023/08/30 05:02:43;;;;;;;4.13;1.40;;;;;;;11.71;91.15;100333.97;5006343;28;20050;-45
2023/08/30 05:05:11;;;;;;;9.00;1.63;;;;;;;11.72;91.18;100332.00;4994606;28;20073;-44
2023/08/30 05:07:38;;;;;;;5.22;1.30;;;;;;;11.71;91.38;100335.94;5009684;28;20045;-45
2023/08/30 05:10:06;;;;;;;4.35;1.35;;;;;;;11.69;91.54;100329.94;5009400;28;20088;-46
2023/08/30 05:12:35;;;;;;;6.22;1.42;;;;;;;11.70;91.38;100334.34;5008240;28;20046;-44
2023/08/30 05:15:03;;;;;;;1.90;1.13;;;;;;;11.70;91.52;100323.25;5008985;28;20428;-47
2023/08/30 05:17:31;;;;;;;7.55;1.13;;;;;;;11.68;91.49;100333.84;5009301;28;20046;-45
2023/08/30 05:19:58;;;;;;;9.13;1.30;;;;;;;11.66;91.59;100328.69;5009862;28;20049;-45
2023/08/30 05:22:27;;;;;;;6.38;1.77;;;;;;;11.63;91.69;100324.66;5013327;28;20060;-44
2023/08/30 05:24:54;;;;;;;6.38;1.30;;;;;;;11.62;91.85;100325.81;5008883;28;20127;-44
2023/08/30 05:27:21;;;;;;;4.95;1.35;;;;;;;11.61;91.91;100332.53;5008670;28;20108;-45
2023/08/30 05:29:48;;;;;;;2.65;1.60;;;;;;;11.58;91.96;100327.72;5009778;28;20053;-49
2023/08/30 05:32:18;;;;;;;5.35;1.67;;;;;;;11.59;91.98;100329.34;5010835;28;20050;-45
2023/08/30 05:34:45;;;;;;;8.18;2.78;;;;;;;11.60;92.26;100330.94;5013049;28;20092;-44
2023/08/30 05:37:13;;;;;;;3.88;1.38;;;;;;;11.59;92.07;100332.09;5010191;28;20053;-44
2023/08/30 05:39:40;;;;;;;3.97;1.40;;;;;;;11.57;92.50;100326.09;5011630;28;20567;-44
2023/08/30 05:42:08;;;;;;;6.00;1.30;;;;;;;11.58;92.37;100330.50;5011203;28;20546;-45
2023/08/30 05:44:36;;;;;;;6.82;2.25;;;;;;;11.59;92.34;100326.56;5011319;28;20052;-45
2023/08/30 05:47:03;;;;;;;7.38;1.58;;;;;;;11.57;92.45;100328.88;5011307;28;20050;-44
2023/08/30 05:49:31;;;;;;;7.20;1.98;;;;;;;11.58;92.72;100332.44;5011598;28;20077;-44
2023/08/30 05:51:58;;;;;;;5.72;1.65;;;;;;;11.56;92.85;100324.50;5011306;28;20088;-44
2023/08/30 05:54:29;;;;;;;6.05;1.27;;;;;;;11.58;92.71;100322.16;5010803;28;20046;-44
2023/08/30 05:56:56;;;;;;;6.18;1.60;;;;;;;11.60;92.72;100335.66;5004467;28;20511;-44
2023/08/30 05:59:23;;;;;;;7.22;2.42;;;;;;;11.60;92.98;100336.47;5011111;28;20038;-45
2023/08/30 06:01:50;;;;;;;8.85;3.13;;;;;;;11.63;92.88;100341.28;5010977;28;20504;-44
2023/08/30 06:04:18;;;;;;;5.47;1.27;;;;;;;11.64;92.92;100342.09;5011013;28;20088;-49
2023/08/30 06:06:45;;;;;;;4.15;1.30;;;;;;;11.63;92.98;100341.28;5012812;28;20538;-46
2023/08/30 06:09:12;;;;;;;4.22;1.38;;;;;;;11.65;93.07;100338.16;5011410;28;20046;-49
2023/08/30 06:11:40;;;;;;;6.40;1.58;;;;;;;11.66;93.10;100345.31;5010589;28;20439;-45
2023/08/30 06:14:07;;;;;;;8.20;1.63;;;;;;;11.69;93.13;100344.63;5011387;28;20042;-44
2023/08/30 06:16:34;;;;;;;5.88;1.77;;;;;;;11.76;93.34;100344.78;5009152;28;20104;-44
2023/08/30 06:19:02;;;;;;;7.20;1.60;;;;;;;11.86;93.29;100348.97;5008206;28;20447;-45
2023/08/30 06:21:30;;;;;;;3.85;1.05;;;;;;;11.93;93.29;100349.09;5009857;28;20045;-46
2023/08/30 06:23:57;;;;;;;8.77;1.35;;;;;;;11.99;93.29;100336.56;5012916;28;20053;-45
2023/08/30 06:26:24;;;;;;;7.60;1.40;;;;;;;12.02;93.36;100335.84;4993008;28;20141;-46
2023/08/30 06:28:51;;;;;;;6.13;1.17;;;;;;;12.07;93.26;100327.22;5011282;28;20506;-45
2023/08/30 06:31:26;;;;;;;4.40;1.45;;;;;;;12.14;93.24;100344.81;5011343;28;20049;-45
2023/08/30 06:33:54;;;;;;;5.40;1.83;;;;;;;12.21;93.08;100327.47;4993445;28;20101;-45
2023/08/30 06:36:23;;;;;;;3.90;1.50;;;;;;;12.29;93.14;100329.22;5010951;28;20120;-47
2023/08/30 06:38:50;;;;;;;4.50;1.85;;;;;;;12.33;92.98;100329.31;5010626;28;20049;-46
2023/08/30 06:41:18;;;;;;;6.00;1.52;;;;;;;12.42;93.01;100321.53;5009514;28;20145;-46
2023/08/30 06:43:45;;;;;;;12.25;1.80;;;;;;;12.54;93.14;100336.09;5010173;28;20076;-44
2023/08/30 06:46:12;;;;;;;8.15;1.70;;;;;;;12.61;92.86;100336.19;5012282;28;20050;-45
2023/08/30 06:48:41;;;;;;;9.13;1.83;;;;;;;12.70;92.67;100327.63;5019990;28;20062;-45
2023/08/30 06:51:08;;;;;;;6.78;1.88;;;;;;;12.78;92.78;100334.94;5014425;28;20492;-45
2023/08/30 06:53:35;;;;;;;6.78;1.90;;;;;;;12.86;92.42;100324.75;5014559;28;20078;-45
2023/08/30 06:56:03;;;;;;;5.13;1.70;;;;;;;12.94;92.35;100326.47;5014659;28;20050;-44
2023/08/30 06:58:31;;;;;;;11.77;2.30;;;;;;;13.00;92.22;100311.88;4997162;28;20038;-45
2023/08/30 07:00:59;;;;;;;9.07;1.73;;;;;;;13.10;92.23;100325.19;5000175;28;20054;-45
2023/08/30 07:03:26;;;;;;;12.95;2.88;;;;;;;13.18;91.98;100323.34;5014178;28;20038;-44
2023/08/30 07:05:54;;;;;;;7.65;1.83;;;;;;;13.24;91.88;100313.47;5012975;28;20439;-45
2023/08/30 07:08:21;;;;;;;7.53;1.30;;;;;;;13.30;91.75;100312.81;4990544;28;20073;-46
2023/08/30 07:10:49;;;;;;;5.40;1.85;;;;;;;13.36;91.90;100314.09;5013978;28;20119;-45
2023/08/30 07:13:17;;;;;;;5.13;1.58;;;;;;;13.38;91.56;100313.72;5006534;28;20057;-47
2023/08/30 07:15:44;;;;;;;6.22;1.58;;;;;;;13.43;91.69;100316.97;5012807;28;20141;-46
2023/08/30 07:18:13;;;;;;;14.32;1.73;;;;;;;13.48;91.63;100318.63;5014107;28;20127;-44
2023/08/30 07:20:42;;;;;;;7.95;2.15;;;;;;;13.56;91.54;100320.31;5012366;28;20057;-44
2023/08/30 07:23:10;;;;;;;2.65;1.40;;;;;;;13.70;91.73;100323.31;5013678;28;20074;-46
2023/08/30 07:25:38;;;;;;;2.42;1.10;;;;;;;13.88;91.63;100337.47;5012531;28;20057;-45
2023/08/30 07:28:05;;;;;;;5.50;1.30;;;;;;;14.04;91.30;100332.50;5015603;28;20140;-45
2023/08/30 07:30:37;;;;;;;8.60;2.15;;;;;;;14.23;91.22;100337.13;5015191;28;20068;-46
2023/08/30 07:33:05;;;;;;;8.70;1.40;;;;;;;14.36;90.93;100324.56;4981770;28;20045;-47
2023/08/30 07:35:32;;;;;;;10.52;2.15;;;;;;;14.46;90.55;100333.03;5012332;28;20037;-50
2023/08/30 07:38:00;;;;;;;8.30;1.67;;;;;;;14.55;90.48;100327.97;5013705;28;20042;-45
2023/08/30 07:40:28;;;;;;;9.45;2.10;;;;;;;14.64;90.26;100324.88;5013294;28;20045;-46
2023/08/30 07:42:56;;;;;;;23.33;2.75;;;;;;;14.74;89.95;100324.19;5007109;28;20050;-45
2023/08/30 07:45:25;;;;;;;2.80;1.08;;;;;;;14.85;89.56;100325.06;5007473;28;20045;-44
2023/08/30 07:47:53;;;;;;;7.47;1.48;;;;;;;14.90;89.35;100315.59;5011687;28;20042;-45
2023/08/30 07:50:21;;;;;;;2.47;1.27;;;;;;;14.95;89.19;100318.00;5015185;28;20447;-45
2023/08/30 07:52:48;;;;;;;6.07;1.58;;;;;;;14.97;88.70;100318.41;5008552;28;20153;-47
2023/08/30 07:55:16;;;;;;;11.48;1.52;;;;;;;14.96;88.15;100317.63;5020940;28;20052;-45
2023/08/30 07:57:43;;;;;;;5.40;1.00;;;;;;;14.97;88.33;100321.22;4994602;28;20428;-44
2023/08/30 08:00:11;;;;;;;4.22;1.20;;;;;;;15.01;87.94;100322.84;5014197;28;20077;-44
2023/08/30 08:02:40;;;;;;;2.72;1.23;;;;;;;15.05;87.91;100320.88;5012493;28;20054;-45
2023/08/30 08:05:08;;;;;;;4.80;1.40;;;;;;;15.06;87.78;100319.69;5010067;28;20069;-45
2023/08/30 08:07:40;;;;;;;4.15;1.20;;;;;;;15.07;87.47;100323.28;5011979;28;20146;-45
2023/08/30 08:10:07;;;;;;;3.88;1.10;;;;;;;15.10;87.59;100320.53;5009992;28;20038;-45
2023/08/30 08:12:35;;;;;;;7.63;2.13;;;;;;;15.13;87.56;100330.91;5013615;28;20042;-47
2023/08/30 08:15:03;;;;;;;4.75;1.42;;;;;;;15.15;87.76;100334.13;5011008;28;20044;-45
2023/08/30 08:17:30;;;;;;;3.92;0.90;;;;;;;15.18;87.62;100329.75;5012730;28;20049;-46
2023/08/30 08:19:58;;;;;;;3.80;1.30;;;;;;;15.21;88.02;100328.97;5011649;28;20049;-44
2023/08/30 08:22:25;;;;;;;2.47;1.00;;;;;;;15.27;88.22;100325.44;5009943;28;20042;-46
2023/08/30 08:24:56;;;;;;;6.43;2.35;;;;;;;15.36;88.35;100335.47;5013844;28;20465;-45
2023/08/30 08:27:26;;;;;;;12.33;1.57;;;;;;;15.49;89.12;100325.66;5015336;28;20137;-46
2023/08/30 08:29:53;;;;;;;3.67;1.45;;;;;;;15.60;89.60;100327.31;5011323;28;20050;-46
2023/08/30 08:32:20;;;;;;;3.92;1.20;;;;;;;15.82;90.30;100336.59;5010202;28;20076;-45
2023/08/30 08:34:47;;;;;;;8.27;1.30;;;;;;;16.08;91.10;100341.91;5010684;28;20050;-45
2023/08/30 08:37:14;;;;;;;4.57;1.88;;;;;;;16.33;91.35;100337.25;5012377;28;20052;-45
2023/08/30 08:39:42;;;;;;;4.93;1.30;;;;;;;16.62;90.91;100338.16;5014397;28;20499;-48
2023/08/30 08:42:10;;;;;;;3.85;1.10;;;;;;;17.12;90.74;100336.22;5010972;28;20052;-46
2023/08/30 08:44:40;;;;;;;6.78;1.10;;;;;;;17.74;88.18;100338.59;5010324;28;20058;-46
2023/08/30 08:47:07;;;;;;;8.20;1.40;;;;;;;18.48;86.29;100332.75;5014561;28;20062;-45
2023/08/30 08:49:34;;;;;;;2.42;1.05;;;;;;;19.35;82.25;100338.94;5012561;28;20052;-45
2023/08/30 08:52:03;;;;;;;4.80;1.10;;;;;;;20.25;78.77;100334.84;5001754;28;21440;-45
2023/08/30 08:54:42;;;;;;;4.55;1.10;;;;;;;20.96;73.92;100346.69;5011554;28;20056;-44
2023/08/30 08:57:09;;;;;;;7.13;1.20;;;;;;;21.29;70.55;100359.06;5014911;28;20427;-46
2023/08/30 08:59:36;;;;;;;2.42;0.95;;;;;;;21.52;68.29;100356.28;5011586;28;20058;-50
2023/08/30 09:02:05;;;;;;;5.25;1.40;;;;;;;21.80;65.99;100354.94;5010825;28;20049;-47
2023/08/30 09:04:32;;;;;;;6.43;1.55;;;;;;;22.07;63.72;100361.31;5012768;28;20496;-45
2023/08/30 09:07:02;;;;;;;4.40;1.73;;;;;;;22.40;61.77;100348.94;5010916;28;20053;-49
2023/08/30 09:09:30;;;;;;;3.35;1.23;;;;;;;22.63;60.35;100347.28;5016450;28;20120;-46
2023/08/30 09:11:57;;;;;;;4.45;1.80;;;;;;;22.70;59.26;100345.09;5015119;28;20123;-46
2023/08/30 09:14:25;;;;;;;5.35;1.30;;;;;;;22.97;57.75;100347.69;5008428;28;20050;-45
2023/08/30 09:16:56;;;;;;;4.10;1.63;;;;;;;23.47;56.93;100342.44;5010350;28;20129;-45
2023/08/30 09:19:24;;;;;;;5.32;1.25;;;;;;;23.58;55.05;100348.63;5015719;28;20488;-46
2023/08/30 09:21:53;;;;;;;3.42;1.05;;;;;;;23.37;54.75;100349.19;5010731;28;20059;-46
2023/08/30 09:24:21;;;;;;;4.13;1.25;;;;;;;23.28;54.31;100351.78;5013726;28;20065;-45
2023/08/30 09:26:50;;;;;;;6.00;1.20;;;;;;;23.17;54.26;100361.75;5017461;28;20124;-45
2023/08/30 09:29:19;;;;;;;3.13;1.10;;;;;;;22.89;53.94;100355.56;5011162;28;20411;-45
2023/08/30 09:31:51;;;;;;;4.53;1.83;;;;;;;22.80;54.51;100360.19;5005477;28;20050;-46
2023/08/30 09:34:26;;;;;;;2.53;1.10;;;;;;;22.88;54.05;100353.16;4990061;28;20053;-46
2023/08/30 09:36:54;;;;;;;2.38;0.80;;;;;;;23.00;52.85;100350.44;5010917;28;20458;-45
2023/08/30 09:39:22;;;;;;;4.18;1.10;;;;;;;22.86;52.72;100347.16;4992297;28;20050;-46
2023/08/30 09:41:50;;;;;;;6.53;1.40;;;;;;;22.76;52.56;100353.84;5011171;28;20058;-46
2023/08/30 09:44:20;;;;;;;3.80;0.90;;;;;;;23.06;52.56;100356.34;5008993;28;20054;-44
2023/08/30 09:46:53;;;;;;;6.82;1.88;;;;;;;23.65;51.95;100353.28;5011105;28;20060;-45
2023/08/30 09:49:24;;;;;;;4.40;1.42;;;;;;;24.01;50.56;100364.44;5010558;28;20478;-46
2023/08/30 09:51:52;;;;;;;3.70;2.10;;;;;;;23.94;49.69;100362.59;5011357;28;20117;-45
2023/08/30 09:54:28;;;;;;;3.15;0.93;;;;;;;23.47;50.67;100361.44;5012047;28;20048;-45
2023/08/30 09:57:00;;;;;;;5.18;0.80;;;;;;;22.69;50.47;100356.84;5011074;28;20042;-45
2023/08/30 09:59:28;;;;;;;4.80;1.85;;;;;;;22.06;52.26;100351.25;5008232;28;20090;-45
2023/08/30 10:01:57;;;;;;;3.90;1.15;;;;;;;21.99;52.49;100354.22;4998894;28;20524;-45
2023/08/30 10:04:25;;;;;;;4.47;1.10;;;;;;;22.03;52.38;100363.38;4993752;28;20132;-46
2023/08/30 10:06:55;;;;;;;2.45;0.80;;;;;;;21.94;52.27;100363.19;5008164;28;20050;-44
2023/08/30 10:09:24;;;;;;;5.95;1.52;;;;;;;22.09;51.80;100361.66;5014097;28;20038;-46
2023/08/30 10:11:51;;;;;;;4.28;1.17;;;;;;;21.82;51.38;100363.75;5011750;28;20050;-45
2023/08/30 10:14:18;;;;;;;7.03;1.30;;;;;;;21.92;52.45;100357.19;5011131;28;20054;-46
2023/08/30 10:16:47;;;;;;;3.78;0.82;;;;;;;22.80;50.99;100352.53;5011530;28;20057;-45
2023/08/30 10:19:25;;;;;;;3.25;1.00;;;;;;;23.83;49.82;100364.91;5011423;28;20046;-45
2023/08/30 10:22:04;;;;;;;3.45;1.13;;;;;;;24.80;47.81;100361.78;5013765;28;20089;-45
2023/08/30 10:24:56;;;;;;;1.73;1.15;;;;;;;24.55;47.84;100362.50;5014807;28;20038;-45
2023/08/30 10:27:39;;;;;;;3.25;0.93;;;;;;;23.91;48.01;100357.03;5013952;28;20056;-45
2023/08/30 10:30:09;;;;;;;5.22;1.50;;;;;;;23.86;47.75;100349.09;5015109;28;20053;-45
2023/08/30 10:32:40;;;;;;;4.90;1.10;;;;;;;23.55;48.42;100355.16;4997116;28;20046;-48
2023/08/30 10:35:15;;;;;;;5.10;1.30;;;;;;;23.53;48.41;100354.81;4997696;28;20050;-45
2023/08/30 10:37:54;;;;;;;5.80;1.33;;;;;;;23.47;48.41;100352.97;4998868;28;20058;-45
2023/08/30 10:40:22;;;;;;;4.60;1.48;;;;;;;23.33;47.26;100351.25;4993850;28;20049;-45
2023/08/30 10:43:04;;;;;;;4.03;0.82;;;;;;;22.61;48.07;100346.91;5010373;28;20042;-46
2023/08/30 10:45:32;;;;;;;5.25;1.27;;;;;;;22.22;48.88;100342.88;5016763;28;20042;-45
2023/08/30 10:47:59;;;;;;;4.13;1.30;;;;;;;21.92;49.75;100340.28;5014503;28;20384;-46
2023/08/30 10:50:32;;;;;;;6.53;1.00;;;;;;;21.43;50.81;100343.94;5014503;28;20058;-45
2023/08/30 10:52:59;;;;;;;3.55;1.40;;;;;;;20.86;51.53;100350.47;5013836;28;20046;-45
2023/08/30 10:55:27;;;;;;;5.03;0.95;;;;;;;20.43;53.16;100355.09;5014295;28;20107;-45
2023/08/30 10:58:00;;;;;;;8.18;1.38;;;;;;;20.17;53.70;100350.97;5014334;28;20058;-45
2023/08/30 11:00:30;;;;;;;7.57;1.60;;;;;;;19.89;54.73;100338.03;5013588;28;20038;-46
2023/08/30 11:02:57;;;;;;;6.30;1.45;;;;;;;19.85;55.18;100334.47;5014517;28;20050;-45
2023/08/30 11:05:27;;;;;;;7.60;1.20;;;;;;;19.88;55.39;100336.41;5014779;28;20391;-45
2023/08/30 11:07:55;;;;;;;8.80;1.48;;;;;;;19.93;55.62;100335.19;5013895;28;20042;-45
2023/08/30 11:10:22;;;;;;;7.22;1.45;;;;;;;20.12;55.01;100340.16;5012765;28;20052;-45
2023/08/30 11:12:50;;;;;;;4.75;1.65;;;;;;;20.14;54.49;100334.13;5012220;28;20050;-45
2023/08/30 11:15:21;;;;;;;6.80;1.70;;;;;;;19.94;54.47;100334.75;5012571;28;20052;-45
2023/08/30 11:17:48;;;;;;;5.70;1.20;;;;;;;19.77;55.17;100332.16;5013922;28;20042;-44
2023/08/30 11:20:18;;;;;;;5.22;1.13;;;;;;;19.58;55.59;100330.72;5014406;28;20472;-46
2023/08/30 11:22:47;;;;;;;2.58;1.10;;;;;;;19.45;55.54;100335.28;5013821;28;20057;-45
2023/08/30 11:25:16;;;;;;;4.55;1.48;;;;;;;19.34;56.07;100337.34;4996365;28;20141;-47
2023/08/30 11:27:44;;;;;;;1.88;0.70;;;;;;;19.27;56.83;100334.59;5013798;28;20052;-44
2023/08/30 11:30:12;;;;;;;5.25;1.00;;;;;;;19.26;56.60;100335.81;5013779;28;20546;-45
2023/08/30 11:32:42;;;;;;;5.13;1.70;;;;;;;19.25;56.53;100334.19;5000445;28;20092;-45